Track Злобин Александр

Time Latitude Longitude Accuracy (66% radius in meters) Altitude (meters) Speed (km/hour) Bearing (degrees) Battery (%) GPS flag
08:56:32 60.371023 29.556296 6 80.41137925599 0.24295960366726 141.98426818848 87 1 delete
08:56:20 60.371029 29.556282 4 79.590759121697 0.028542563319206 315.18789672852 87 1 delete
08:56:08 60.371034 29.556259 4 79.49366333366 0.009277799166739 315.18789672852 87 1 delete
08:55:59 60.371041 29.556246 4 79.380122527733 0.017765872180462 315.18789672852 87 1 delete
08:55:47 60.371018 29.556229 4 79.202216355284 0.0012026544427499 315.18789672852 87 1 delete
08:55:35 60.371046 29.556278 4 79.113558226089 0.023089356720448 315.18789672852 87 1 delete
08:55:23 60.371041 29.556265 4 78.625746648382 0.017385672777891 315.18789672852 87 1 delete
08:55:11 60.371038 29.556218 4 78.455826126516 0.014366312883794 315.18789672852 87 1 delete
08:54:59 60.371048 29.556229 4 78.362310706075 0.0043834280222654 315.18789672852 87 1 delete
08:54:47 60.371039 29.556256 4 78.243388487144 0.012377115897834 315.18789672852 87 1 delete
08:54:35 60.371065 29.556244 6 78.095615196071 0.078021854162216 315.18789672852 87 1 delete
08:54:25 60.371029 29.556252 4 77.847385043329 0.01329910568893 315.18789672852 87 1 delete
08:54:13 60.371029 29.556277 4 77.480282816797 0.045655768364668 315.18789672852 87 1 delete
08:54:01 60.371058 29.556333 4 77.13242003484 0.037356454879045 315.18789672852 87 1 delete
08:53:49 60.371056 29.556290 4 76.807126864508 0.030172970145941 315.18789672852 87 1 delete
08:53:37 60.371046 29.556281 4 76.518623976259 0.017416020855308 315.18789672852 87 1 delete
08:53:28 60.371055 29.556279 6 76.352721817823 0.076309740543365 315.18789672852 87 1 delete
08:53:25 60.371039 29.556286 6 76.29489381741 0.081946328282356 315.18789672852 87 1 delete
08:53:13 60.371016 29.556277 4 76.32687711208 0.0049907672218978 315.18789672852 87 1 delete
08:53:01 60.371021 29.556312 6 75.59029482167 0.12300181388855 315.18789672852 87 1 delete
08:52:49 60.371032 29.556311 4 75.282509772897 0.11063362658024 315.18789672852 87 1 delete
08:52:40 60.371030 29.556311 4 75.163304413881 0.053444880992174 315.18789672852 87 1 delete
08:52:28 60.371042 29.556293 4 74.988003727087 0.0043608876876533 315.18789672852 87 1 delete
08:52:16 60.371000 29.556280 4 74.424932967034 0.027157096192241 315.18789672852 87 1 delete
08:52:07 60.371002 29.556314 4 73.619971551552 0.044096726924181 315.18789672852 87 1 delete
08:52:04 60.370994 29.556322 4 73.600789496006 0.044123914092779 315.18789672852 87 1 delete
08:51:52 60.370980 29.556316 6 72.918156313146 0.14848931133747 315.18789672852 87 1 delete
08:51:43 60.370968 29.556339 8 72.226444796284 0.32742542028427 317.34634399414 87 1 delete
08:51:31 60.370988 29.556348 8 72.049143553307 0.018410859629512 299.08139038086 87 1 delete
08:51:19 60.370984 29.556368 8 71.685089042142 0.25561916828156 73.234916687012 87 1 delete
08:51:07 60.370990 29.556389 16 73.823934076344 0.61402398347855 47.447093963623 87 1 delete
08:50:55 60.370975 29.556385 8 75.680264001625 0.045370616018772 181.93432617188 87 1 delete
08:50:46 60.370982 29.556397 4 76.278334219272 0.061074413359165 181.93432617188 87 1 delete
08:50:34 60.370988 29.556371 4 76.409539611633 0.016103571280837 181.93432617188 87 1 delete
08:50:22 60.370975 29.556359 6 76.559003556191 0.045271050184965 181.93432617188 87 1 delete
08:50:10 60.370975 29.556393 6 76.68274139748 0.051448442041874 181.93432617188 87 1 delete
08:49:58 60.370971 29.556376 4 76.725949945474 0.040428597480059 181.93432617188 87 1 delete
08:49:46 60.370972 29.556369 4 76.737119161582 0.015661999583244 181.93432617188 87 1 delete
08:49:37 60.370966 29.556383 4 76.724781059477 0.01991786248982 181.93432617188 87 1 delete
08:49:25 60.370959 29.556358 4 76.720857857353 0.022548712790012 181.93432617188 87 1 delete
08:49:13 60.370970 29.556407 4 76.707583078621 0.011953518725932 181.93432617188 87 1 delete
08:49:01 60.370986 29.556431 4 76.806368113848 0.023751450702548 181.93432617188 87 1 delete
08:48:58 60.370988 29.556402 4 76.835858159004 0.0246975813061 181.93432617188 87 1 delete
08:48:49 60.370975 29.556356 6 76.855011592458 0.02521139383316 181.93432617188 87 1 delete
08:48:37 60.370974 29.556336 4 76.827712797624 0.096316538751125 181.93432617188 87 1 delete
08:48:25 60.370973 29.556331 4 76.777473066811 0.041886501014233 181.93432617188 87 1 delete
08:48:16 60.370979 29.556346 4 76.766193912978 0.065754011273384 181.93432617188 87 1 delete
08:48:04 60.370978 29.556353 4 76.71845026029 0.019103650003672 181.93432617188 87 1 delete
08:47:52 60.370977 29.556348 4 76.702596955142 0.010358429513872 181.93432617188 87 1 delete
08:47:40 60.370972 29.556329 4 76.677008003292 0.024490345269442 181.93432617188 87 1 delete